Grovertown, Indiana
Current Conditions -  °F | °C
As of 10:15 AM on Sunday 25 Jan 2015 (Local Time) from KOXI Reporting Station
Overcast Overcast  
Wind Chill: 25°   Ceiling: 800
Heat Index: 34°   Visibility: 2.5mi
Dew Point: 29°   Wind: 15mph
Humidity: 81%   Direction: 70°ENE
Pressure: 29.73"   Gusts: NA
Location:  41.37°N, 86.5°W
Report Text: KOXI 251615Z AUTO 07013KT 2 1/2SM OVC008 01/M02 A2973 RMK AO1 T00131016
Loading
Personal Weather Stations






























Interactive Weather Map New forecast layout! Learn more

10-Day Weather Forecast

Advertisements
Track Severe Weather on mobile